Time;durP1;ratioP1;P1;durP2;ratioP2;P2;SDS_P1;SDS_P2;PMS_P1;PMS_P2;Temp;Humidity;BMP_temperature;BMP_pressure;BME280_temperature;BME280_humidity;BME280_pressure;Samples;Min_cycle;Max_cycle;Signal;HPM_P1;HPM_P2
2022/09/24 00:01:55;;;;;;;;;9.75;8.50;;;;;17.83;51.75;100649.75;5013387;28;45382;-55
2022/09/24 00:04:23;;;;;;;;;12.50;10.75;;;;;17.83;52.11;100652.53;4996156;28;45411;-55
2022/09/24 00:06:49;;;;;;;;;10.60;9.80;;;;;17.74;52.37;100641.06;5014074;28;45503;-53
2022/09/24 00:09:16;;;;;;;;;13.00;10.00;;;;;17.78;52.24;100656.09;5012576;28;45581;-55
2022/09/24 00:11:44;;;;;;;;;9.20;9.20;;;;;17.54;52.44;100614.78;5014346;28;45378;-52
2022/09/24 00:14:09;;;;;;;;;10.60;10.40;;;;;17.75;52.48;100646.34;5014422;28;45447;-51
2022/09/24 00:16:35;;;;;;;;;12.25;9.00;;;;;17.70;52.82;100645.44;5014946;28;45274;-55
2022/09/24 00:19:01;;;;;;;;;10.50;10.00;;;;;17.59;53.12;100642.56;5015371;28;45572;-54
2022/09/24 00:21:28;;;;;;;;;14.20;10.80;;;;;17.61;53.03;100639.56;4979868;28;45971;-53
2022/09/24 00:23:58;;;;;;;;;10.60;8.20;;;;;17.63;53.10;100640.13;5015531;28;45364;-55
2022/09/24 00:29:09;;;;;;;;;13.00;11.60;;;;;17.61;53.20;100629.28;5000626;28;45374;-55
2022/09/24 00:31:34;;;;;;;;;11.60;9.80;;;;;17.65;53.52;100637.09;5014995;28;45457;-55
2022/09/24 00:34:00;;;;;;;;;10.00;10.00;;;;;17.60;53.44;100637.84;5015520;28;45347;-54
2022/09/24 00:36:26;;;;;;;;;14.50;12.75;;;;;17.61;53.62;100631.22;5014875;28;45535;-56
2022/09/24 00:38:52;;;;;;;;;7.75;7.75;;;;;17.61;53.77;100640.38;5015686;28;45315;-54
2022/09/24 00:41:19;;;;;;;;;10.20;10.20;;;;;17.30;53.60;100584.56;5014914;28;45366;-54
2022/09/24 00:43:44;;;;;;;;;10.60;9.40;;;;;17.65;53.90;100634.31;5015107;28;45395;-55
2022/09/24 00:46:24;;;;;;;;;13.00;12.25;;;;;17.64;53.84;100632.63;5015411;28;45407;-52
2022/09/24 00:48:50;;;;;;;;;14.00;12.40;;;;;17.45;53.98;100608.84;5015440;28;45363;-55
2022/09/24 00:51:18;;;;;;;;;11.60;10.00;;;;;17.41;53.59;100598.53;4996940;28;45523;-53
2022/09/24 00:53:44;;;;;;;;;15.80;14.20;;;;;17.42;53.62;100592.75;5014562;28;45431;-55
2022/09/24 00:56:10;;;;;;;;;9.60;9.40;;;;;17.63;53.77;100620.69;5015158;28;45409;-53
2022/09/24 00:58:35;;;;;;;;;13.20;10.00;;;;;17.61;53.68;100623.72;4997318;28;45387;-52
2022/09/24 01:01:04;;;;;;;;;12.25;11.00;;;;;17.67;53.62;100635.69;5014912;28;45796;-55
2022/09/24 01:03:30;;;;;;;;;12.20;11.20;;;;;17.66;53.72;100631.25;5014575;28;45421;-53
2022/09/24 01:05:55;;;;;;;;;14.00;13.60;;;;;17.64;53.96;100622.34;4997001;28;45446;-52
2022/09/24 01:08:21;;;;;;;;;10.00;10.00;;;;;17.64;54.04;100621.50;5015158;28;45356;-55
2022/09/24 01:11:07;;;;;;;;;13.50;12.50;;;;;17.64;54.25;100630.69;5014340;28;45783;-55
2022/09/24 01:14:09;;;;;;;;;12.60;11.40;;;;;17.62;53.97;100630.13;5014691;28;45284;-54
2022/09/24 01:16:48;;;;;;;;;10.20;8.00;;;;;17.33;54.39;100588.75;5016678;28;45341;-55
2022/09/24 01:19:24;;;;;;;;;9.60;9.60;;;;;17.57;54.35;100630.06;4984865;28;45598;-54
2022/09/24 01:21:56;;;;;;;;;12.40;11.20;;;;;17.55;54.50;100624.78;5000111;28;46401;-54
2022/09/24 01:24:36;;;;;;;;;11.20;11.20;;;;;17.56;54.96;100631.16;5001014;28;45458;-55
2022/09/24 01:27:18;;;;;;;;;12.00;10.00;;;;;17.54;55.51;100622.25;4996833;28;45398;-55
2022/09/24 01:29:56;;;;;;;;;15.00;11.20;;;;;17.42;56.45;100625.19;4997506;28;45262;-55
2022/09/24 01:32:40;;;;;;;;;15.80;12.40;;;;;17.41;56.27;100621.59;4998476;28;45632;-58
2022/09/24 01:35:15;;;;;;;;;9.20;9.20;;;;;17.40;56.92;100622.66;4998279;28;45374;-54
2022/09/24 01:37:43;;;;;;;;;15.00;12.00;;;;;17.34;57.15;100609.84;4998403;28;45388;-55
2022/09/24 01:40:09;;;;;;;;;10.60;10.20;;;;;17.39;57.13;100607.13;4968012;28;45594;-54
2022/09/24 01:42:36;;;;;;;;;9.60;9.60;;;;;17.36;57.67;100607.66;4980444;28;47153;-55
2022/09/24 01:45:02;;;;;;;;;15.80;11.80;;;;;17.32;57.82;100610.13;4996982;28;45430;-55
2022/09/24 01:47:34;;;;;;;;;17.60;13.20;;;;;17.25;58.17;100594.78;4980703;28;45403;-51
2022/09/24 01:50:00;;;;;;;;;11.40;9.00;;;;;17.34;58.45;100609.84;4945721;28;45257;-55
2022/09/24 01:52:29;;;;;;;;;12.00;11.40;;;;;17.34;58.75;100615.38;4980131;28;46455;-55
2022/09/24 01:54:54;;;;;;;;;11.40;11.00;;;;;17.08;59.06;100559.66;4996446;28;45766;-55
2022/09/24 01:57:33;;;;;;;;;15.50;13.25;;;;;17.28;58.94;100599.81;4964088;28;45850;-55
2022/09/24 02:00:08;;;;;;;;;14.20;11.00;;;;;17.19;59.11;100591.94;4997235;28;45589;-54
2022/09/24 02:02:57;;;;;;;;;14.60;11.80;;;;;17.24;59.46;100595.88;4980763;28;46250;-56
2022/09/24 02:06:02;;;;;;;;;13.40;11.60;;;;;17.22;59.66;100592.53;4987470;28;46031;-52
2022/09/24 02:08:32;;;;;;;;;12.00;10.20;;;;;17.18;59.63;100586.66;4992269;28;45719;-55
2022/09/24 02:11:17;;;;;;;;;11.80;11.00;;;;;17.17;59.84;100590.50;4996780;28;45474;-54
2022/09/24 02:13:48;;;;;;;;;14.40;13.40;;;;;17.13;59.97;100572.75;4996736;28;46210;-51
2022/09/24 02:16:15;;;;;;;;;11.20;11.20;;;;;17.19;59.64;100574.47;4980053;28;45334;-55
2022/09/24 02:18:42;;;;;;;;;12.80;12.00;;;;;17.12;59.85;100582.97;4980407;28;45386;-54
2022/09/24 02:21:12;;;;;;;;;12.80;11.60;;;;;16.97;59.89;100575.28;4998018;28;45461;-54
2022/09/24 02:23:40;;;;;;;;;11.40;11.00;;;;;16.85;59.92;100569.88;4996442;28;46373;-55
2022/09/24 02:26:06;;;;;;;;;13.60;11.60;;;;;16.78;60.84;100567.34;4980378;28;45458;-51
2022/09/24 02:28:32;;;;;;;;;13.25;13.25;;;;;16.85;60.88;100571.84;4999311;28;45426;-55
2022/09/24 02:31:20;;;;;;;;;12.25;12.00;;;;;16.89;61.10;100575.75;4999887;28;45351;-53
2022/09/24 02:36:49;;;;;;;;;10.20;9.40;;;;;16.91;60.84;100566.09;5017262;28;45310;-56
2022/09/24 02:39:17;;;;;;;;;15.20;11.20;;;;;16.92;61.02;100562.22;5017546;28;45429;-55
2022/09/24 02:41:47;;;;;;;;;13.60;9.80;;;;;16.83;60.77;100569.31;4995464;28;45591;-56
2022/09/24 02:44:15;;;;;;;;;9.00;8.00;;;;;16.79;61.18;100560.69;4995909;28;46583;-56
2022/09/24 02:46:42;;;;;;;;;13.00;12.80;;;;;16.62;61.77;100557.13;5015922;28;45402;-55
2022/09/24 02:49:08;;;;;;;;;12.60;12.60;;;;;16.52;61.80;100530.13;4998670;28;45388;-56
2022/09/24 02:51:34;;;;;;;;;11.20;10.00;;;;;16.62;61.40;100534.97;4998722;28;45436;-54
2022/09/24 02:54:00;;;;;;;;;10.50;10.50;;;;;16.65;61.17;100517.84;4982525;28;45808;-56
2022/09/24 02:56:27;;;;;;;;;11.80;11.80;;;;;16.76;61.15;100533.47;5016558;28;45358;-56
2022/09/24 02:58:53;;;;;;;;;10.80;10.20;;;;;16.93;60.70;100549.19;5016629;28;45176;-53
2022/09/24 03:01:18;;;;;;;;;12.50;12.50;;;;;16.94;60.35;100553.66;4999159;28;45494;-56
2022/09/24 03:03:44;;;;;;;;;9.25;8.00;;;;;16.95;60.77;100541.47;5016431;28;46161;-54
2022/09/24 03:06:11;;;;;;;;;14.50;13.00;;;;;16.97;60.85;100550.34;5016764;28;45371;-52
2022/09/24 03:08:37;;;;;;;;;17.80;16.00;;;;;16.98;60.97;100549.28;5016384;28;45355;-54
2022/09/24 03:11:03;;;;;;;;;10.25;10.25;;;;;16.77;61.18;100518.50;5017070;28;45491;-55
2022/09/24 03:13:28;;;;;;;;;11.00;9.60;;;;;16.86;61.60;100526.41;4998565;28;46207;-55
2022/09/24 03:15:54;;;;;;;;;15.50;10.00;;;;;16.99;61.21;100548.16;4998580;28;45252;-53
2022/09/24 03:18:19;;;;;;;;;10.50;10.50;;;;;16.98;61.40;100537.31;5016780;28;45343;-54
2022/09/24 03:20:54;;;;;;;;;12.50;11.25;;;;;16.96;60.80;100540.34;5016560;28;45608;-55
2022/09/24 03:23:19;;;;;;;;;9.60;9.20;;;;;16.93;60.58;100540.88;5016485;28;46190;-56
2022/09/24 03:25:45;;;;;;;;;10.75;10.75;;;;;16.91;60.34;100538.38;4998152;28;45352;-55
2022/09/24 03:28:10;;;;;;;;;11.25;9.25;;;;;16.88;59.97;100538.06;4998727;28;45410;-55
2022/09/24 03:33:20;;;;;;;;;11.00;7.80;;;;;16.81;60.21;100529.91;5016691;28;45863;-53
2022/09/24 03:35:45;;;;;;;;;9.00;9.00;;;;;16.75;60.48;100522.66;4998288;28;45279;-55
2022/09/24 03:38:11;;;;;;;;;11.75;10.00;;;;;16.60;60.66;100501.16;4997949;28;45388;-55
2022/09/24 03:40:37;;;;;;;;;9.00;7.75;;;;;16.84;60.48;100534.09;5016374;28;45350;-56
2022/09/24 03:43:02;;;;;;;;;11.25;10.25;;;;;16.75;60.68;100517.94;5015908;28;46606;-56
2022/09/24 03:45:27;;;;;;;;;10.75;8.75;;;;;16.76;60.70;100527.13;4998587;28;45386;-56
2022/09/24 03:47:54;;;;;;;;;10.50;10.00;;;;;16.67;61.22;100522.00;4998468;28;45592;-59
2022/09/24 03:50:19;;;;;;;;;11.80;11.80;;;;;16.72;60.51;100528.72;5016498;28;45315;-55
2022/09/24 03:52:45;;;;;;;;;9.50;9.50;;;;;16.71;61.19;100527.03;4997969;28;45383;-54
2022/09/24 03:55:10;;;;;;;;;9.75;8.50;;;;;16.70;61.19;100522.59;4998017;28;45375;-56
2022/09/24 03:57:36;;;;;;;;;13.75;11.00;;;;;16.70;61.55;100519.84;5016111;28;45335;-56
2022/09/24 04:00:02;;;;;;;;;11.75;11.75;;;;;16.74;61.18;100520.97;5016002;28;45439;-52
2022/09/24 04:02:27;;;;;;;;;11.20;11.00;;;;;16.63;61.33;100509.78;4997873;28;46556;-52
2022/09/24 04:04:53;;;;;;;;;14.00;12.00;;;;;16.64;61.13;100507.81;5015528;28;45403;-54
2022/09/24 04:07:18;;;;;;;;;10.75;9.25;;;;;16.69;60.87;100518.16;5016303;28;45851;-53
2022/09/24 04:09:44;;;;;;;;;8.50;8.50;;;;;16.65;61.41;100509.53;5016058;28;45597;-56
2022/09/24 04:12:09;;;;;;;;;11.75;11.25;;;;;16.38;61.11;100466.81;5015755;28;45518;-56
2022/09/24 04:14:35;;;;;;;;;12.75;11.50;;;;;16.67;60.95;100515.63;4998014;28;45469;-52
2022/09/24 04:17:01;;;;;;;;;14.00;12.20;;;;;16.63;61.35;100503.38;4997871;28;45340;-56
2022/09/24 04:19:26;;;;;;;;;13.00;11.00;;;;;16.69;61.69;100515.38;5015955;28;45552;-55
2022/09/24 04:21:52;;;;;;;;;15.50;12.75;;;;;16.59;61.82;100519.69;4997745;28;46842;-56
2022/09/24 04:24:17;;;;;;;;;15.00;11.50;;;;;16.45;61.97;100515.63;5015506;28;45409;-53
2022/09/24 04:26:43;;;;;;;;;14.00;12.75;;;;;16.15;62.21;100486.44;5008847;28;45475;-55
2022/09/24 04:29:08;;;;;;;;;11.50;10.00;;;;;16.33;62.35;100518.53;5014012;28;45576;-53
2022/09/24 04:31:33;;;;;;;;;15.00;11.25;;;;;16.22;62.52;100490.69;5015342;28;45517;-53
2022/09/24 04:33:59;;;;;;;;;11.00;11.00;;;;;16.47;62.59;100516.22;5011893;28;45391;-55
2022/09/24 04:36:24;;;;;;;;;13.25;12.00;;;;;16.47;63.06;100516.22;5013574;28;45395;-55
2022/09/24 04:38:50;;;;;;;;;14.50;11.75;;;;;16.41;62.44;100512.53;4996879;28;45482;-54
2022/09/24 04:41:15;;;;;;;;;13.75;11.25;;;;;16.44;62.52;100516.75;5011997;28;45599;-55
2022/09/24 04:43:41;;;;;;;;;10.25;9.75;;;;;16.35;62.10;100500.56;5013481;28;45410;-55
2022/09/24 04:46:08;;;;;;;;;9.25;9.25;;;;;16.48;62.13;100524.28;5014161;28;45491;-56
2022/09/24 04:48:37;;;;;;;;;14.00;13.80;;;;;16.48;62.09;100512.34;4977742;28;45478;-55
2022/09/24 04:51:04;;;;;;;;;14.60;14.60;;;;;16.52;61.96;100522.66;5014121;28;45395;-54
2022/09/24 04:53:29;;;;;;;;;14.00;11.80;;;;;16.52;62.17;100524.59;5015029;28;45442;-53
2022/09/24 04:55:55;;;;;;;;;10.50;10.50;;;;;16.40;62.39;100508.94;5015312;28;45507;-56
2022/09/24 04:58:20;;;;;;;;;12.00;10.75;;;;;16.48;61.96;100520.66;5015228;28;45375;-55
2022/09/24 05:00:46;;;;;;;;;11.00;11.00;;;;;16.14;62.21;100463.47;5014780;28;45473;-56
2022/09/24 05:03:12;;;;;;;;;13.50;10.50;;;;;16.21;62.13;100469.66;5014928;28;45330;-54
2022/09/24 05:05:37;;;;;;;;;13.00;13.00;;;;;16.36;61.91;100504.16;4997203;28;45451;-53
2022/09/24 05:08:03;;;;;;;;;13.00;11.00;;;;;16.53;61.75;100526.25;4997480;28;45248;-54
2022/09/24 05:10:30;;;;;;;;;11.60;11.00;;;;;16.53;61.79;100518.81;5014378;28;46648;-54
2022/09/24 05:12:55;;;;;;;;;8.00;8.00;;;;;16.23;62.20;100480.47;5014868;28;45365;-55
2022/09/24 05:15:21;;;;;;;;;11.75;9.25;;;;;16.49;61.82;100531.47;4980659;28;45328;-53
2022/09/24 05:17:47;;;;;;;;;12.50;11.50;;;;;16.50;61.89;100535.09;4997321;28;45502;-54
2022/09/24 05:20:13;;;;;;;;;9.50;7.00;;;;;16.51;61.92;100536.78;5014668;28;46340;-54
2022/09/24 05:22:45;;;;;;;;;10.60;9.20;;;;;16.26;62.17;100511.25;5014603;28;45450;-55
2022/09/24 05:25:12;;;;;;;;;14.80;10.40;;;;;16.49;62.14;100541.75;5015197;28;45340;-54
2022/09/24 05:27:46;;;;;;;;;11.60;10.80;;;;;16.10;62.11;100489.97;5014673;28;45411;-54
2022/09/24 05:30:11;;;;;;;;;13.00;9.20;;;;;16.34;62.08;100537.66;4997526;28;45583;-54
2022/09/24 05:32:37;;;;;;;;;19.00;15.00;;;;;16.37;62.27;100551.00;5014304;28;45427;-53
2022/09/24 05:35:03;;;;;;;;;8.25;8.25;;;;;16.40;62.08;100547.69;4997298;28;45394;-55
2022/09/24 05:37:28;;;;;;;;;10.75;10.00;;;;;16.32;61.66;100550.09;4990079;28;45407;-54
2022/09/24 05:39:54;;;;;;;;;10.00;10.00;;;;;16.19;61.92;100521.69;5009622;28;45981;-50
2022/09/24 05:42:20;;;;;;;;;11.00;9.50;;;;;16.35;62.12;100549.56;4996646;28;45942;-50
2022/09/24 05:44:46;;;;;;;;;9.40;9.00;;;;;16.37;61.98;100545.47;4996433;28;45832;-54
2022/09/24 05:47:12;;;;;;;;;11.00;11.00;;;;;16.40;61.84;100558.78;4997172;28;45489;-55
2022/09/24 05:49:38;;;;;;;;;11.00;10.60;;;;;16.21;61.96;100510.31;5014382;28;46057;-52
2022/09/24 05:52:03;;;;;;;;;13.00;11.75;;;;;16.41;61.95;100556.84;4980224;28;46136;-55
2022/09/24 05:54:29;;;;;;;;;11.75;10.25;;;;;16.40;62.24;100555.19;5014543;28;45276;-54
2022/09/24 05:56:54;;;;;;;;;13.25;12.00;;;;;16.41;62.48;100551.31;5014228;28;46015;-52
2022/09/24 05:59:20;;;;;;;;;11.25;10.50;;;;;16.42;62.13;100554.94;4996419;28;47187;-53
2022/09/24 06:01:46;;;;;;;;;11.50;11.50;;;;;16.39;62.08;100553.53;5014884;28;45424;-54
2022/09/24 06:04:12;;;;;;;;;11.00;8.00;;;;;15.64;62.69;100432.81;5017740;28;45356;-55
2022/09/24 06:06:38;;;;;;;;;13.00;10.00;;;;;16.33;63.03;100549.00;4999903;28;45383;-56
2022/09/24 06:09:04;;;;;;;;;14.00;12.50;;;;;16.31;62.94;100556.69;5017156;28;46364;-56
2022/09/24 06:11:35;;;;;;;;;9.60;8.00;;;;;16.33;63.36;100552.59;4999758;28;45562;-54
2022/09/24 06:14:04;;;;;;;;;11.80;9.20;;;;;16.35;63.40;100555.97;5017643;28;45248;-56
2022/09/24 06:16:32;;;;;;;;;12.00;10.60;;;;;16.37;63.07;100562.06;5017607;28;45494;-55
2022/09/24 06:18:57;;;;;;;;;10.60;10.60;;;;;16.35;63.10;100563.41;5017333;28;45465;-55
2022/09/24 06:21:23;;;;;;;;;15.00;13.00;;;;;16.29;63.56;100556.97;5017166;28;45441;-54
2022/09/24 06:23:48;;;;;;;;;9.75;9.25;;;;;16.09;63.80;100521.50;5017345;28;45382;-53
2022/09/24 06:26:14;;;;;;;;;14.50;9.25;;;;;15.93;63.65;100495.53;5017183;28;45370;-53
2022/09/24 06:28:39;;;;;;;;;11.25;9.50;;;;;16.42;63.15;100572.38;4999692;28;45753;-52
2022/09/24 06:31:05;;;;;;;;;9.75;8.50;;;;;16.44;63.48;100574.91;5016476;28;45307;-53
2022/09/24 06:33:31;;;;;;;;;14.25;11.25;;;;;16.43;63.58;100582.38;4999688;28;45263;-54
2022/09/24 06:36:00;;;;;;;;;11.00;10.75;;;;;16.43;63.37;100576.00;5017289;28;45631;-53
2022/09/24 06:38:26;;;;;;;;;10.40;10.40;;;;;16.36;63.70;100574.25;4999177;28;46341;-53
2022/09/24 06:40:51;;;;;;;;;8.75;7.25;;;;;16.30;63.54;100577.19;5016744;28;45449;-53
2022/09/24 06:43:17;;;;;;;;;9.50;9.25;;;;;16.36;63.11;100581.72;5017313;28;45889;-55
2022/09/24 06:45:43;;;;;;;;;12.50;10.50;;;;;16.37;63.37;100581.47;5017185;28;45585;-52
2022/09/24 06:48:11;;;;;;;;;9.00;8.00;;;;;16.35;63.30;100575.34;5016758;28;46094;-51
2022/09/24 06:50:42;;;;;;;;;9.80;8.40;;;;;16.36;63.40;100585.34;4999137;28;45383;-56
2022/09/24 06:53:07;;;;;;;;;8.80;8.20;;;;;16.15;63.42;100550.94;4982589;28;45546;-57
2022/09/24 06:55:34;;;;;;;;;8.25;8.25;;;;;16.33;63.41;100579.47;5017021;28;45422;-54
2022/09/24 06:58:01;;;;;;;;;14.00;8.00;;;;;16.24;63.89;100565.22;5016174;28;47053;-56
2022/09/24 07:00:27;;;;;;;;;9.00;7.80;;;;;16.36;63.76;100584.47;5017037;28;45792;-56
2022/09/24 07:02:52;;;;;;;;;13.00;12.00;;;;;16.37;63.88;100588.91;5016895;28;45796;-56
2022/09/24 07:05:18;;;;;;;;;10.75;8.75;;;;;16.40;63.68;100582.88;4970198;28;45460;-59
2022/09/24 07:07:43;;;;;;;;;13.00;9.00;;;;;16.42;63.98;100585.41;4999002;28;45453;-56
2022/09/24 07:10:09;;;;;;;;;7.75;7.75;;;;;16.41;63.97;100590.09;5016579;28;45651;-57
2022/09/24 07:12:35;;;;;;;;;10.25;8.75;;;;;16.37;64.64;100589.78;4998144;28;45607;-61
2022/09/24 07:15:01;;;;;;;;;11.20;7.40;;;;;16.20;64.12;100566.78;5015698;28;45598;-55
2022/09/24 07:17:26;;;;;;;;;8.50;8.50;;;;;16.38;63.63;100591.44;5016160;28;45528;-57
2022/09/24 07:19:52;;;;;;;;;9.50;8.50;;;;;16.19;64.17;100554.06;5016356;28;45494;-57
2022/09/24 07:22:18;;;;;;;;;10.00;9.00;;;;;16.30;63.94;100582.72;5016571;28;45492;-59
2022/09/24 07:24:43;;;;;;;;;9.00;7.75;;;;;16.38;64.12;100591.44;5016589;28;45375;-55
2022/09/24 07:27:09;;;;;;;;;14.00;10.25;;;;;16.39;64.23;100589.53;4981676;28;46088;-55
2022/09/24 07:29:34;;;;;;;;;10.50;10.50;;;;;16.33;65.03;100593.31;5016074;28;45378;-54
2022/09/24 07:32:00;;;;;;;;;12.25;9.75;;;;;16.34;64.53;100606.88;4998249;28;45336;-54
2022/09/24 07:34:26;;;;;;;;;8.80;8.20;;;;;16.35;64.63;100602.19;5016552;28;45387;-56
2022/09/24 07:36:51;;;;;;;;;11.25;9.00;;;;;16.29;64.76;100595.75;5016004;28;46119;-55
2022/09/24 07:39:19;;;;;;;;;8.25;7.75;;;;;16.34;64.63;100611.59;4998207;28;45313;-58
2022/09/24 07:41:46;;;;;;;;;11.40;9.20;;;;;16.29;64.89;100598.53;5016082;28;45538;-56
2022/09/24 07:44:11;;;;;;;;;11.00;9.50;;;;;16.34;64.81;100612.41;5016424;28;45572;-56
2022/09/24 07:46:36;;;;;;;;;5.00;5.00;;;;;16.37;64.94;100613.84;5015521;28;45343;-56
2022/09/24 07:49:02;;;;;;;;;12.00;8.00;;;;;16.31;64.58;100603.78;5016073;28;45419;-60
2022/09/24 07:51:28;;;;;;;;;14.25;9.00;;;;;16.31;64.83;100606.56;5015737;28;45376;-59
2022/09/24 07:53:54;;;;;;;;;12.75;10.00;;;;;16.30;64.63;100618.72;4981917;28;45674;-55
2022/09/24 07:56:20;;;;;;;;;11.20;9.20;;;;;16.09;64.72;100590.72;5015683;28;46383;-55
2022/09/24 07:58:49;;;;;;;;;9.00;8.00;;;;;16.27;65.14;100622.84;5015354;28;45313;-57
2022/09/24 08:01:16;;;;;;;;;9.40;8.20;;;;;16.21;64.84;100615.53;4998156;28;45920;-53
2022/09/24 08:03:42;;;;;;;;;8.60;7.80;;;;;16.23;64.99;100621.69;4970837;28;45820;-56
2022/09/24 08:06:08;;;;;;;;;7.60;7.60;;;;;16.23;65.36;100625.28;4981082;28;46670;-53
2022/09/24 08:08:34;;;;;;;;;9.75;8.00;;;;;16.29;64.72;100628.13;4989895;28;45905;-60
2022/09/24 08:11:03;;;;;;;;;10.00;8.50;;;;;16.21;65.45;100610.00;5002614;28;45758;-60
2022/09/24 08:13:29;;;;;;;;;12.60;11.40;;;;;16.28;65.13;100630.06;4993537;28;45669;-60
2022/09/24 08:15:58;;;;;;;;;13.25;11.75;;;;;16.25;65.76;100617.56;5011001;28;45573;-61
2022/09/24 08:18:23;;;;;;;;;11.20;7.40;;;;;16.31;65.16;100623.16;4993308;28;45522;-60
2022/09/24 08:20:49;;;;;;;;;9.00;7.00;;;;;16.27;65.43;100631.16;4991831;28;45450;-60
2022/09/24 08:23:14;;;;;;;;;8.00;6.75;;;;;16.28;64.86;100632.84;5010324;28;45400;-61
2022/09/24 08:25:40;;;;;;;;;9.75;9.00;;;;;16.29;64.88;100634.53;5008975;28;45563;-59
2022/09/24 08:28:06;;;;;;;;;13.75;12.50;;;;;16.31;65.00;100639.78;5010422;28;45426;-61
2022/09/24 08:30:32;;;;;;;;;8.00;7.60;;;;;16.31;65.00;100643.41;5011259;28;45331;-60
2022/09/24 08:32:58;;;;;;;;;9.80;9.00;;;;;16.06;64.94;100597.59;4976829;28;45491;-58
2022/09/24 08:35:24;;;;;;;;;19.00;12.75;;;;;16.29;65.58;100640.06;4991968;28;46625;-59
2022/09/24 08:37:49;;;;;;;;;7.40;7.40;;;;;16.40;65.29;100643.81;5008669;28;45926;-59
2022/09/24 08:40:22;;;;;;;;;10.00;7.75;;;;;16.46;65.11;100647.50;4976613;28;45592;-61
2022/09/24 08:43:07;;;;;;;;;10.20;9.80;;;;;16.44;65.27;100644.16;4993566;28;45406;-59
2022/09/24 08:48:21;;;;;;;;;12.60;11.20;;;;;16.58;64.83;100653.78;4962070;28;45787;-61
2022/09/24 08:50:59;;;;;;;;;16.25;12.25;;;;;16.63;64.63;100648.31;5002955;28;45499;-59
2022/09/24 08:53:39;;;;;;;;;20.60;15.60;;;;;16.61;65.60;100649.66;4977934;28;45420;-61
2022/09/24 08:56:05;;;;;;;;;12.20;10.80;;;;;16.60;64.79;100653.53;5010309;28;45888;-61
2022/09/24 08:58:54;;;;;;;;;12.25;12.25;;;;;16.59;64.53;100649.09;4998569;28;45949;-60
2022/09/24 09:01:41;;;;;;;;;13.40;11.00;;;;;16.49;64.79;100641.47;4978476;28;45776;-60
2022/09/24 09:04:12;;;;;;;;;10.80;9.80;;;;;16.62;64.42;100656.88;4980623;28;46618;-62
2022/09/24 09:07:05;;;;;;;;;9.00;8.40;;;;;16.43;64.77;100621.13;4996381;28;46612;-59
2022/09/24 09:09:58;;;;;;;;;12.60;11.60;;;;;16.61;64.51;100652.44;4987702;28;45563;-58
2022/09/24 09:12:33;;;;;;;;;17.20;12.20;;;;;16.63;65.05;100659.41;4957504;28;45740;-59
2022/09/24 09:15:10;;;;;;;;;12.60;11.20;;;;;16.50;64.98;100638.41;4957489;28;45432;-61
2022/09/24 09:17:44;;;;;;;;;15.40;12.00;;;;;16.48;64.93;100628.69;4956708;28;46606;-64
2022/09/24 09:20:16;;;;;;;;;12.00;12.00;;;;;16.70;65.10;100661.97;4973558;28;46043;-60
2022/09/24 09:22:46;;;;;;;;;16.00;13.20;;;;;16.66;64.79;100646.97;4993348;28;45816;-61
2022/09/24 09:25:24;;;;;;;;;15.20;13.40;;;;;16.69;64.22;100645.63;4992196;28;45472;-62
2022/09/24 09:28:13;;;;;;;;;16.40;12.60;;;;;16.61;64.96;100644.13;5009672;28;47203;-61
2022/09/24 09:31:07;;;;;;;;;22.40;18.60;;;;;16.66;64.98;100663.59;4991879;28;45771;-62
2022/09/24 09:33:44;;;;;;;;;14.60;11.80;;;;;16.53;64.99;100623.22;4992583;28;45460;-62
2022/09/24 09:36:52;;;;;;;;;17.40;14.20;;;;;16.85;64.60;100647.50;4991240;28;45701;-64
2022/09/24 09:39:17;;;;;;;;;18.60;16.60;;;;;16.90;64.39;100655.88;4933522;28;45515;-63
2022/09/24 09:42:01;;;;;;;;;15.75;15.75;;;;;16.97;64.54;100655.69;5013753;28;45545;-61
2022/09/24 09:44:30;;;;;;;;;14.00;14.00;;;;;16.97;64.20;100652.91;4996044;28;45519;-61
2022/09/24 09:47:39;;;;;;;;;16.60;14.80;;;;;17.03;64.29;100663.00;4994300;28;45464;-60
2022/09/24 09:50:45;;;;;;;;;12.40;12.40;;;;;17.14;64.04;100668.69;4995329;28;45868;-58
2022/09/24 09:53:22;;;;;;;;;25.00;18.80;;;;;17.15;63.91;100659.28;5006397;28;45726;-60
2022/09/24 09:55:55;;;;;;;;;20.60;16.40;;;;;17.18;63.58;100664.31;5009338;28;45588;-58
2022/09/24 09:58:25;;;;;;;;;16.60;12.80;;;;;17.15;63.45;100653.72;4993694;28;45493;-59
2022/09/24 10:00:51;;;;;;;;;11.80;11.40;;;;;17.00;63.47;100632.16;4991511;28;45844;-58
2022/09/24 10:03:26;;;;;;;;;9.50;9.25;;;;;17.27;62.38;100662.75;4974983;28;45363;-58
2022/09/24 10:05:54;;;;;;;;;21.00;15.00;;;;;17.28;62.44;100658.06;4973475;28;45787;-60
2022/09/24 10:08:21;;;;;;;;;11.00;11.00;;;;;17.29;61.94;100659.72;4971116;28;45755;-61
2022/09/24 10:10:54;;;;;;;;;13.00;11.40;;;;;17.28;61.71;100658.88;4996830;28;46617;-64
2022/09/24 10:13:19;;;;;;;;;12.80;11.40;;;;;17.18;62.83;100665.13;4992915;28;45781;-60
2022/09/24 10:15:49;;;;;;;;;13.50;12.50;;;;;16.87;63.93;100661.09;4993213;28;45473;-63
2022/09/24 10:18:15;;;;;;;;;11.00;11.00;;;;;16.84;64.64;100670.75;5011804;28;45830;-62
2022/09/24 10:20:45;;;;;;;;;20.75;16.25;;;;;16.92;63.78;100658.41;5009244;28;45719;-65
2022/09/24 10:23:23;;;;;;;;;13.80;11.20;;;;;16.93;63.39;100669.22;4990559;28;45543;-60
2022/09/24 10:25:58;;;;;;;;;12.00;12.00;;;;;16.85;63.74;100646.69;4973463;28;45876;-61
2022/09/24 10:31:21;;;;;;;;;17.00;14.40;;;;;16.99;63.76;100660.97;4991055;28;45974;-61
2022/09/24 10:33:48;;;;;;;;;11.40;10.20;;;;;16.96;63.57;100654.00;5010752;28;45504;-57
2022/09/24 10:36:18;;;;;;;;;18.00;14.80;;;;;17.07;63.26;100664.19;4984195;28;45372;-59
2022/09/24 10:38:44;;;;;;;;;15.00;14.40;;;;;17.07;63.66;100663.31;5011108;28;45471;-63
2022/09/24 10:41:26;;;;;;;;;15.75;15.75;;;;;17.12;63.32;100668.94;5011552;28;46330;-63
2022/09/24 10:43:52;;;;;;;;;18.20;13.80;;;;;17.11;63.13;100650.63;5012427;28;45463;-61
2022/09/24 10:46:40;;;;;;;;;19.20;17.00;;;;;17.16;63.38;100666.50;5011486;28;45481;-62
2022/09/24 10:49:28;;;;;;;;;17.40;16.40;;;;;17.24;63.53;100667.97;5011215;28;45493;-60
2022/09/24 10:52:07;;;;;;;;;19.80;15.60;;;;;17.34;62.67;100666.16;5010476;28;45404;-62
2022/09/24 10:54:49;;;;;;;;;16.00;16.00;;;;;17.29;62.64;100648.63;5007499;28;45907;-61
2022/09/24 10:57:30;;;;;;;;;24.60;22.60;;;;;17.11;62.38;100631.22;5002337;28;45798;-63
2022/09/24 11:00:14;;;;;;;;;16.40;14.20;;;;;17.22;62.11;100642.44;4986900;28;45543;-60
2022/09/24 11:03:06;;;;;;;;;13.40;12.20;;;;;17.40;62.11;100657.91;4997042;28;45573;-60
2022/09/24 11:05:44;;;;;;;;;15.80;15.80;;;;;17.66;61.23;100653.47;4982375;28;47850;-63
2022/09/24 11:08:33;;;;;;;;;19.80;17.60;;;;;18.01;60.62;100663.25;5010689;28;45521;-60
2022/09/24 11:11:10;;;;;;;;;16.80;15.20;;;;;18.22;59.87;100659.81;5011041;28;45422;-59
2022/09/24 11:13:53;;;;;;;;;17.80;16.60;;;;;18.32;59.64;100659.91;5009029;28;47425;-60
2022/09/24 11:16:41;;;;;;;;;19.20;18.80;;;;;18.40;58.94;100667.75;5012205;28;45404;-56
2022/09/24 11:19:33;;;;;;;;;22.20;21.20;;;;;18.51;58.91;100665.03;5011017;28;45505;-61
2022/09/24 11:22:10;;;;;;;;;21.80;19.80;;;;;18.57;58.86;100663.94;5012554;28;45693;-59
2022/09/24 11:24:48;;;;;;;;;20.80;19.20;;;;;18.51;58.06;100665.88;5009206;28;46346;-60
2022/09/24 11:27:48;;;;;;;;;19.20;15.60;;;;;18.48;58.20;100651.66;5010057;28;45914;-61
2022/09/24 11:30:18;;;;;;;;;15.00;14.40;;;;;18.54;57.88;100657.00;4996710;28;45834;-59
2022/09/24 11:33:11;;;;;;;;;20.20;18.60;;;;;18.51;57.76;100654.75;4976785;28;45462;-61
2022/09/24 11:35:57;;;;;;;;;21.40;17.80;;;;;18.44;58.30;100659.72;5012197;28;45487;-60
2022/09/24 11:38:39;;;;;;;;;25.80;21.60;;;;;18.37;58.29;100661.88;4991253;28;45509;-58
2022/09/24 11:41:10;;;;;;;;;16.80;16.80;;;;;17.64;58.46;100549.38;4991844;28;45520;-60
2022/09/24 11:43:49;;;;;;;;;18.20;17.40;;;;;18.36;58.53;100649.09;4992296;28;45466;-60